VECCVEGY

Guest
Details From VECC - NETAJI SUBHASH CHANDRA BOSE INTL
To VEGY - GAYA
Flight Number -
Tags generated
Created
Modified
Stats Distance 232 nm / 429 km
Max Altitude 20,200 ft / 6,157 m
Waypoints 5
Social Downloads 0
Likes 0
Share VATSIM

Download

Looking for another format? Having issues loading an existing format? Contact us
Advertisement - Login to hide

Notes

Basic altitude profile: - Ascent Rate: 700ft/min - Ascent Speed: 110kts - Cruise Altitude: 9000ft - Cruise Speed: 140kts - Descent Rate: 600ft/min - Descent Speed: 130kts Options: - Use NATs: yes - Use PACOTS: yes - Use low airways: yes - Use high airways: no

Route

VECC CEA R460 GGC VEGY

ID Type Via Altitude (ft/m) Position (lat/lon) Dist (leg/tot) Name
O VECC APT - 0 / 0 22.65562 / 88.44686 - / 0 nm NETAJI SUBHASH CHANDRA BOSE INTL
CEA VOR - 200 / 61 22.64518 / 88.45288 0 / 0 nm KOLKATA VOR-DME
TEPAL FIX R460 (AWY-LO) 20,200 / 6,157 23.81172 / 86.43422 131 / 132 nm
GGC VOR R460 (AWY-LO) 7,500 / 2,286 24.74189 / 84.94386 98 / 231 nm GAYA VOR-DME
O VEGY APT - 0 / 0 24.74431 / 84.95118 0 / 231 nm GAYA

Altitude Profile

Advertisement - Login to hide

Weather


0- 5 10 15 20 25 30 35+ Temperature / °C

Clouds and Precipitation
Forecast for 2019-07-19 00:00 UTC. Updated 6 hours ago

Ground ~20,000 ft ~40,000 ft Winds

VECC

Details ICAO VECC (CCU)
Name Kolkata Intl
Region India
Timezone Asia/Kolkata (UTC+5.5)
Stats Elevation 22 ft / 7 m (AMSL)
Location 22.654800° 88.446700°
Runways 2
Magnetic Variation 0.152° W

METAR

VECC 190300Z 11007KT 6000 SCT020 SCT025 31/27 Q1003 NOSIG

Decode

TAF

Not found

Departure Runways

ID Width Length Bearing (true/mag) Surface Threshold Overrun Markings Lighting
01L 148 ft / 45 m 10,771 ft / 3,283 m 6.21° / 6.36° ASPHALT 1,450 ft / 442 m 0 ft / 0 m PREC-APP EDGE THRESHOLD MALS TDZ
01R 148 ft / 45 m 11,970 ft / 3,648 m 6.21° / 6.36° ASPHALT 0 ft / 0 m 213 ft / 65 m PREC-APP EDGE THRESHOLD ALSF-I TDZ
19L 148 ft / 45 m 11,970 ft / 3,648 m 186.21° / 186.36° ASPHALT 1,411 ft / 430 m 469 ft / 143 m PREC-APP EDGE THRESHOLD ALSF-II TDZ
19R 148 ft / 45 m 10,771 ft / 3,283 m 186.21° / 186.36° ASPHALT 292 ft / 89 m 0 ft / 0 m PREC-APP EDGE THRESHOLD ALSF-I TDZ

VEGY

Details ICAO VEGY (GAY)
Name Gaya Airport
Region India
Timezone Asia/Kolkata (UTC+5.5)
Stats Elevation 379 ft / 116 m (AMSL)
Location 24.744100° 84.950600°
Runways 1
Magnetic Variation 0.237° E

METAR

VEGY 190300Z 23004KT 3000 HZ FEW018 32/26 Q1002

Decode

TAF

Not found

Destination Runways

ID Width Length Bearing (true/mag) Surface Threshold Overrun Markings Lighting
10 148 ft / 45 m 7,507 ft / 2,288 m 103.77° / 103.53° ASPHALT 0 ft / 0 m 0 ft / 0 m PREC-APP CENTERLINE EDGE THRESHOLD REIL-UNI
28 148 ft / 45 m 7,507 ft / 2,288 m 283.78° / 283.54° ASPHALT 246 ft / 75 m 0 ft / 0 m PREC-APP CENTERLINE EDGE THRESHOLD REIL-UNI

Popular Alternatives